Metar Cercanos

 

LEPA - Palma De Mallorc, Spain
Distance from station: ONO 38km
Actualización: Sun, 16-Jun-2024 11:30pm CEST
Few Clouds
Few Clouds
 Viento del SE
Viento: SE 6 km/h
Temperatura: 23°C
Rocío: 21°C
Humedad: 89%
Barómetro: 1014 hPa
Clouds: Few Clouds
Visibility: 10 km
Cloud details: Few Clouds 914 m
2024/06/16 21:30 LEPA 162130Z 14003KT 090V170 9999 FEW030 23/21 Q1014 NOSIG
LEMH - Mahon/Menorca Is, Spain
Distance from station: ENE 105km
Actualización: Sun, 16-Jun-2024 11:30pm CEST
Parcialmente nuboso
Parcialmente nuboso
 Viento del SE
Viento: SE 11 km/h
Temperatura: 21°C
Rocío: 21°C
Humedad: 100%
Barómetro: 1015 hPa
Clouds: Parcialmente nuboso
Visibility: 10 km
Cloud details: Parcialmente nuboso 244 m
2024/06/16 21:30 LEMH 162130Z 14006KT 9999 SCT008 21/21 Q1015
 
LEIB - Ibiza/Es Codola, Spain
Distance from station: OSO 165km
Actualización: Sun, 16-Jun-2024 11:30pm CEST
Few Clouds
Few Clouds
 Viento del E
Viento: E 4 km/h
Temperatura: 21°C
Rocío: 19°C
Humedad: 88%
Barómetro: 1013 hPa
Clouds: Few Clouds
Visibility: 10 km
Cloud details: Few Clouds 335 m
2024/06/16 21:30 LEIB 162130Z 08002KT 9999 FEW011 21/19 Q1013 NOSIG
LEBL - Barcelona Airpor, Spain
Distance from station: NNO 225km
Actualización: Sun, 16-Jun-2024 11:30pm CEST
Parcialmente nuboso
Parcialmente nuboso
 Viento del SSE
Viento: SSE 2 km/h
Temperatura: 20°C
Rocío: 18°C
Humedad: 88%
Barómetro: 1014 hPa
Clouds: Parcialmente nuboso
Visibility: 10 km
Cloud details: Few Clouds 427 m
Parcialmente nuboso 610 m
2024/06/16 21:30 LEBL 162130Z 15001KT 9999 FEW014 SCT020 20/18 Q1014 NOSIG
 
LEVC - Valencia (civ/Mi, Spain
Distance from station: NO 188km
Actualización: Sun, 16-Jun-2024 11:30pm CEST
Muy nuboso
Muy nuboso
 Viento del NE
Viento: NE 11 km/h
Temperatura: 22°C
Rocío: 18°C
Humedad: 78%
Barómetro: 1014 hPa
Clouds: Muy nuboso
Visibility: 10 km
Cloud details: Few Clouds 518 m
Muy nuboso 732 m
2024/06/16 21:30 LEVC 162130Z 04006KT 360V080 9999 FEW017 BKN024 22/18 Q1014 NOSIG
LEGE - Gerona/Costa Bra, Spain
Distance from station: N 276km
Actualización: Sun, 16-Jun-2024 11:30pm CEST
Despejado
Despejado
 Viento del SO
Viento: SO 7 km/h
Temperatura: 18°C
Rocío: 16°C
Humedad: 88%
Barómetro: 1014 hPa
Resumen: Despejado
Visibility: greater than 10 km
2024/06/16 21:30 LEGE 162130Z 22004KT CAVOK 18/16 Q1014 NOSIG
 
LEAL - Alicante/El Alte, Spain
Distance from station: OSO 344km
Actualización: Sun, 16-Jun-2024 11:30pm CEST
Despejado
Despejado
 Viento del SO
Viento: SO 4 km/h
Temperatura: 22°C
Rocío: 19°C
Humedad: 83%
Barómetro: 1013 hPa
Resumen: Despejado
Visibility: greater than 10 km
2024/06/16 21:30 LEAL 162130Z 22002KT CAVOK 22/19 Q1013 NOSIG
LEAM - Almeria Airport, Spain
Distance from station: SSO 56km
Actualización: Sun, 16-Jun-2024 11:30pm CEST
Despejado
Despejado
 Viento del varies
Viento: varies 4 km/h
Temperatura: 22°C
Rocío: 20°C
Humedad: 88%
Barómetro: 1013 hPa
Resumen: Despejado
Visibility: greater than 10 km
2024/06/16 21:30 LEAM 162130Z AUTO VRB02KT CAVOK 22/20 Q1013
 
LEZG - Zaragoza (mil/Ci, Spain
Distance from station: NO 431km
Actualización: Sun, 16-Jun-2024 11:30pm CEST
Despejado
Despejado
 Viento del ESE
Viento: ESE 17 km/h
Temperatura: 25°C
Rocío: 13°C
Humedad: 47%
Barómetro: 1011 hPa
Resumen: Despejado
Visibility: greater than 10 km
2024/06/16 21:30 LEZG 162130Z 11009KT CAVOK 25/13 Q1011 NOSIG
LEMD - Madrid/Barajas, Spain
Distance from station: ONO 234km
Actualización: Sun, 16-Jun-2024 11:30pm CEST
Despejado
Despejado
 Viento del OSO
Viento: OSO 22 km/h
Temperatura: 26°C
Rocío: 6°C
Humedad: 28%
Barómetro: 1012 hPa
Resumen: Despejado
Visibility: greater than 10 km
2024/06/16 21:30 LEMD 162130Z 25012KT 220V280 CAVOK 26/06 Q1012 NOSIG
 
LEGR - Granada Airport, Spain
Distance from station: OSO 62km
Actualización: Sun, 16-Jun-2024 11:30pm CEST
Despejado
Despejado
 Viento del SSO
Viento: SSO 7 km/h
Temperatura: 22°C
Rocío: 4°C
Humedad: 31%
Barómetro: 1015 hPa
Resumen: Despejado
Visibility: greater than 10 km
2024/06/16 21:30 LEGR 162130Z AUTO 20004KT CAVOK 22/04 Q1015
LEMG - Malaga (civ/Mil), Spain
Distance from station: OSO 227km
Actualización: Sun, 16-Jun-2024 11:30pm CEST
Despejado
Despejado
 Viento del E
Viento: E 6 km/h
Temperatura: 20°C
Rocío: 18°C
Humedad: 88%
Barómetro: 1013 hPa
Resumen: Despejado
Visibility: greater than 10 km
2024/06/16 21:30 LEMG 162130Z 09003KT CAVOK 20/18 Q1013 NOSIG
 
LEZL - Sevilla (civ/Mil, Spain
Distance from station: S 318km
Actualización: Sun, 16-Jun-2024 11:30pm CEST
Despejado
Despejado
 Viento del SSO
Viento: SSO 11 km/h
Temperatura: 23°C
Rocío: 13°C
Humedad: 53%
Barómetro: 1013 hPa
Resumen: Despejado
Visibility: greater than 10 km
2024/06/16 21:30 LEZL 162130Z 21006KT 170V240 CAVOK 23/13 Q1013 NOSIG
LEVT - Vitoria, Spain
Distance from station: NO 226km
Actualización: Sun, 16-Jun-2024 11:30pm CEST
Despejado
Despejado
 Viento del NNE
Viento: NNE 11 km/h
Temperatura: 16°C
Rocío: 11°C
Humedad: 72%
Barómetro: 1014 hPa
Resumen: Despejado
Visibility: greater than 10 km
2024/06/16 21:30 LEVT 162130Z 02006KT 350V050 CAVOK 16/11 Q1014
 
LEBB - Bilbao/Sondica, Spain
Distance from station: NNO 235km
Actualización: Sun, 16-Jun-2024 11:30pm CEST
Despejado
Despejado
 Viento del varies
Viento: varies 4 km/h
Temperatura: 19°C
Rocío: 14°C
Humedad: 73%
Barómetro: 1013 hPa
Resumen: Despejado
Visibility: greater than 10 km
2024/06/16 21:30 LEBB 162130Z VRB02KT CAVOK 19/14 Q1013 NOSIG
LESO - San Sebastian/Fu, Spain
Distance from station: N 231km
Actualización: Sun, 16-Jun-2024 11:30pm CEST
Muy nuboso
Muy nuboso
 Viento del varies
Viento: varies 4 km/h
Temperatura: 20°C
Rocío: 14°C
Humedad: 69%
Barómetro: 1013 hPa
Clouds: Muy nuboso
Visibility: 10 km
Cloud details: Muy nuboso 1463 m
2024/06/16 21:30 LESO 162130Z AUTO VRB02KT 9999 BKN048 20/14 Q1013
 
LEVD - Valladolid(Mil/C, Spain
Distance from station: ONO 239km
Actualización: Sun, 16-Jun-2024 11:30pm CEST
Despejado
Despejado
 Viento del ONO
Viento: ONO 13 km/h
Temperatura: 16°C
Rocío: 8°C
Humedad: 59%
Barómetro: 1015 hPa
Resumen: Despejado
Visibility: greater than 10 km
2024/06/16 21:30 LEVD 162130Z AUTO 29007KT 260V320 CAVOK 16/08 Q1015
LESA - Salamanca (civ/M, Spain
Distance from station: ONO 349km
Actualización: Sun, 16-Jun-2024 11:30pm CEST
Despejado
Despejado
 Viento del ONO
Viento: ONO 13 km/h
Temperatura: 16°C
Rocío: 11°C
Humedad: 72%
Barómetro: 1015 hPa
Resumen: Despejado
Visibility: greater than 10 km
2024/06/16 21:30 LESA 162130Z AUTO 30007KT CAVOK 16/11 Q1015
 
LEXJ - Santander/Paraya, Spain
Distance from station: NNO 247km
Actualización: Sun, 16-Jun-2024 11:30pm CEST
Parcialmente nuboso
Parcialmente nuboso
 Viento del E
Viento: E 6 km/h
Temperatura: 19°C
Rocío: 14°C
Humedad: 73%
Barómetro: 1013 hPa
Clouds: Parcialmente nuboso
Visibility: 10 km
Cloud details: Parcialmente nuboso 1707 m
2024/06/16 21:30 LEXJ 162130Z AUTO 10003KT 060V140 9999 SCT056 19/14 Q1013
LEAS - Asturias/Aviles, Spain
Distance from station: NO 214km
Actualización: Sun, 16-Jun-2024 11:30pm CEST
Few Clouds
Few Clouds
 Viento del E
Viento: E 6 km/h
Temperatura: 18°C
Rocío: 15°C
Humedad: 83%
Barómetro: 1012 hPa
Clouds: Few Clouds
Visibility: 10 km
Cloud details: Few Clouds 2438 m
2024/06/16 21:30 LEAS 162130Z 09003KT 050V120 9999 FEW080 18/15 Q1012 NOSIG
 
LECO - La Coruna/Alvedr, Spain
Distance from station: ONO 222km
Actualización: Sun, 16-Jun-2024 11:30pm CEST
Muy nuboso
Muy nuboso
 Viento del S
Viento: S 13 km/h
Temperatura: 17°C
Rocío: 15°C
Humedad: 88%
Barómetro: 1012 hPa
Clouds: Muy nuboso
Visibility: 10 km
Cloud details: Muy nuboso 549 m
2024/06/16 21:30 LECO 162130Z 18007KT 140V210 9999 BKN018 17/15 Q1012 NOSIG
LEVX - Vigo/Peinador, Spain
Distance from station: O 214km
Actualización: Sun, 16-Jun-2024 11:30pm CEST
Patches of fog, Lluvia débil, Cubierto
Patches of fog, Lluvia débil, Cubierto
 Viento del S
Viento: S 13 km/h
Temperatura: 15°C
Rocío: 15°C
Humedad: 100%
Barómetro: 1014 hPa
Resumen: Patches of fog, Lluvia débil
Clouds: Cubierto
Visibility: 0 km
Cloud details: Muy nuboso 30 m
Cubierto 61 m
2024/06/16 21:30 LEVX 162130Z 19007KT 160V220 0400 R19/1700U R01/0450N BCFG -RA BKN001 OVC002 15/15 Q1014 NOSIG